createdAt,value
2019-02-28T00:01:35.418Z,96.03
2019-02-28T00:04:06.871Z,91.53
2019-02-28T00:06:37.225Z,98.30
2019-02-28T00:09:11.536Z,95.63
2019-02-28T00:11:42.198Z,89.90
2019-02-28T00:14:12.572Z,101.37
2019-02-28T00:16:42.843Z,86.03
2019-02-28T00:19:13.086Z,88.53
2019-02-28T00:21:44.018Z,85.97
2019-02-28T00:24:14.282Z,96.87
2019-02-28T00:26:47.531Z,90.30
2019-02-28T00:29:16.518Z,90.30
2019-02-28T00:31:49.469Z,98.17
2019-02-28T00:34:18.706Z,92.40
2019-02-28T00:36:50.391Z,97.30
2019-02-28T00:39:21.074Z,91.83
2019-02-28T00:41:51.479Z,84.77
2019-02-28T00:44:21.713Z,88.23
2019-02-28T00:46:52.018Z,96.23
2019-02-28T00:49:24.458Z,85.57
2019-02-28T00:51:54.940Z,82.97
2019-02-28T00:54:25.468Z,88.70
2019-02-28T00:56:55.689Z,86.27
2019-02-28T00:59:25.996Z,83.60
2019-02-28T01:01:56.408Z,84.47
2019-02-28T01:04:30.037Z,82.43
2019-02-28T01:06:58.675Z,87.87
2019-02-28T01:09:30.232Z,84.50
2019-02-28T01:12:01.217Z,80.93
2019-02-28T01:14:32.449Z,85.17
2019-02-28T01:17:03.929Z,87.63
2019-02-28T01:19:34.227Z,90.97
2019-02-28T01:22:05.593Z,80.37
2019-02-28T01:24:35.821Z,86.17
2019-02-28T01:27:06.079Z,86.43
2019-02-28T01:29:36.426Z,78.73
2019-02-28T01:32:06.907Z,77.37
2019-02-28T01:34:37.155Z,79.10
2019-02-28T01:37:07.645Z,85.03
2019-02-28T01:39:37.958Z,77.70
2019-02-28T01:42:08.267Z,81.17
2019-02-28T01:44:38.663Z,78.60
2019-02-28T01:47:09.055Z,79.60
2019-02-28T01:49:39.316Z,72.90
2019-02-28T01:52:10.627Z,76.80
2019-02-28T01:54:41.043Z,70.67
2019-02-28T01:57:11.383Z,70.27
2019-02-28T01:59:41.626Z,72.50
2019-02-28T02:02:11.971Z,73.77
2019-02-28T02:04:43.238Z,77.13
2019-02-28T02:07:14.187Z,72.50
2019-02-28T02:09:46.258Z,69.80
2019-02-28T02:12:16.663Z,71.13
2019-02-28T02:14:47.051Z,68.00
2019-02-28T02:17:17.343Z,80.83
2019-02-28T02:19:49.359Z,64.50
2019-02-28T02:22:19.846Z,67.37
2019-02-28T02:24:51.188Z,67.03
2019-02-28T02:27:21.539Z,72.03
2019-02-28T02:29:51.822Z,68.00
2019-02-28T02:32:22.112Z,66.70
2019-02-28T02:34:52.363Z,68.30
2019-02-28T02:37:26.457Z,69.80
2019-02-28T02:39:54.614Z,65.23
2019-02-28T02:42:25.256Z,63.20
2019-02-28T02:44:55.483Z,64.13
2019-02-28T02:47:31.318Z,63.37
2019-02-28T02:49:57.960Z,69.27
2019-02-28T02:52:30.397Z,70.00
2019-02-28T02:55:00.329Z,66.83
2019-02-28T02:57:30.675Z,67.93
2019-02-28T03:00:02.301Z,68.37
2019-02-28T03:02:33.350Z,61.93
2019-02-28T03:05:04.837Z,61.70
2019-02-28T03:07:35.235Z,64.67
2019-02-28T03:10:05.987Z,62.83
2019-02-28T03:12:36.289Z,67.47
2019-02-28T03:15:07.304Z,63.63
2019-02-28T03:17:37.608Z,63.60
2019-02-28T03:20:09.032Z,57.87
2019-02-28T03:22:39.334Z,68.87
2019-02-28T03:25:10.648Z,62.17
2019-02-28T03:27:40.897Z,61.13
2019-02-28T03:30:25.773Z,60.83
2019-02-28T03:32:45.976Z,66.67
2019-02-28T03:35:16.437Z,60.70
2019-02-28T03:37:46.603Z,54.73
2019-02-28T03:40:16.864Z,57.97
2019-02-28T03:42:47.071Z,60.10
2019-02-28T03:45:18.119Z,57.40
2019-02-28T03:47:48.380Z,57.27
2019-02-28T03:50:21.961Z,61.23
2019-02-28T03:52:50.829Z,60.40
2019-02-28T03:55:21.574Z,56.43
2019-02-28T03:57:51.882Z,58.80
2019-02-28T04:00:22.091Z,61.13
2019-02-28T04:02:58.742Z,63.43
2019-02-28T04:05:28.129Z,53.27
2019-02-28T04:07:56.459Z,58.33
2019-02-28T04:10:26.876Z,56.90
2019-02-28T04:12:57.519Z,54.83
2019-02-28T04:15:27.804Z,59.47
2019-02-28T04:17:58.330Z,55.23
2019-02-28T04:20:36.141Z,59.50
2019-02-28T04:23:00.527Z,54.73
2019-02-28T04:25:30.814Z,57.17
2019-02-28T04:28:01.055Z,53.47
2019-02-28T04:30:34.601Z,56.47
2019-02-28T04:33:04.880Z,59.57
2019-02-28T04:35:35.312Z,58.30
2019-02-28T04:38:05.550Z,57.33
2019-02-28T04:40:36.007Z,56.83
2019-02-28T04:43:07.241Z,57.43
2019-02-28T04:45:38.186Z,59.40
2019-02-28T04:48:13.351Z,55.60
2019-02-28T04:50:40.677Z,54.97
2019-02-28T04:53:10.931Z,55.10
2019-02-28T04:55:41.417Z,55.10
2019-02-28T04:58:11.630Z,60.47
2019-02-28T05:00:42.009Z,55.50
2019-02-28T05:03:12.265Z,58.57
2019-02-28T05:05:46.382Z,57.60
2019-02-28T05:08:14.559Z,59.47
2019-02-28T05:10:46.021Z,55.43
2019-02-28T05:13:16.371Z,55.27
2019-02-28T05:15:46.725Z,58.07
2019-02-28T05:18:17.181Z,55.63
2019-02-28T05:20:48.674Z,55.10
2019-02-28T05:23:19.121Z,60.93
2019-02-28T05:25:52.075Z,63.10
2019-02-28T05:28:21.865Z,55.57
2019-02-28T05:30:53.758Z,60.57
2019-02-28T05:33:24.167Z,55.67
2019-02-28T05:35:57.255Z,53.77
2019-02-28T05:38:26.406Z,55.20
2019-02-28T05:40:56.697Z,53.93
2019-02-28T05:43:29.206Z,56.70
2019-02-28T05:45:59.468Z,58.50
2019-02-28T05:48:30.205Z,57.57
2019-02-28T05:51:00.411Z,57.93
2019-02-28T05:53:30.600Z,56.73
2019-02-28T05:56:01.251Z,55.33
2019-02-28T05:58:31.512Z,63.47
2019-02-28T06:01:01.947Z,58.40
2019-02-28T06:03:32.210Z,57.07
2019-02-28T06:06:03.020Z,64.10
2019-02-28T06:08:35.550Z,57.27
2019-02-28T06:11:05.916Z,63.73
2019-02-28T06:13:37.082Z,56.93
2019-02-28T06:16:11.305Z,63.30
2019-02-28T06:18:39.426Z,60.30
2019-02-28T06:21:10.263Z,58.50
2019-02-28T06:23:41.622Z,62.37
2019-02-28T06:26:12.038Z,57.77
2019-02-28T06:28:42.530Z,56.13
2019-02-28T06:31:14.411Z,58.23
2019-02-28T06:33:45.906Z,53.83
2019-02-28T06:36:16.183Z,49.47
2019-02-28T06:38:46.595Z,54.93
2019-02-28T06:41:16.710Z,46.97
2019-02-28T06:43:47.127Z,56.50
2019-02-28T06:46:17.392Z,51.43
2019-02-28T06:48:48.178Z,54.20
2019-02-28T06:51:18.446Z,50.57
2019-02-28T06:53:48.902Z,51.27
2019-02-28T06:56:22.190Z,47.00
2019-02-28T06:58:51.490Z,57.23
2019-02-28T07:01:22.861Z,54.77
2019-02-28T07:03:53.822Z,53.07
2019-02-28T07:06:24.100Z,48.43
2019-02-28T07:08:54.520Z,52.10
2019-02-28T07:11:24.856Z,51.73
2019-02-28T07:13:55.395Z,50.80
2019-02-28T07:16:25.689Z,46.83
2019-02-28T07:18:56.645Z,48.20
2019-02-28T07:21:26.920Z,48.90
2019-02-28T07:23:58.261Z,46.27
2019-02-28T07:26:28.543Z,46.57
2019-02-28T07:28:59.003Z,47.93
2019-02-28T07:31:29.303Z,49.27
2019-02-28T07:33:59.566Z,46.00
2019-02-28T07:36:30.050Z,46.93
2019-02-28T07:39:01.311Z,46.53
2019-02-28T07:41:34.074Z,51.20
2019-02-28T07:44:04.522Z,44.87
2019-02-28T07:46:34.872Z,45.77
2019-02-28T07:49:05.306Z,45.07
2019-02-28T07:51:35.975Z,45.90
2019-02-28T07:54:06.250Z,44.40
2019-02-28T07:56:42.740Z,39.30
2019-02-28T07:59:08.976Z,42.30
2019-02-28T08:01:39.282Z,46.30
2019-02-28T08:04:09.575Z,42.87
2019-02-28T08:06:40.504Z,47.30
2019-02-28T08:09:30.754Z,43.40
2019-02-28T08:12:01.045Z,44.57
2019-02-28T08:14:31.658Z,42.73
2019-02-28T08:17:02.046Z,44.67
2019-02-28T08:19:32.738Z,45.23
2019-02-28T08:22:03.146Z,42.10
2019-02-28T08:24:35.838Z,59.30
2019-02-28T08:27:06.324Z,41.10
2019-02-28T08:29:36.624Z,49.97
2019-02-28T08:32:08.160Z,47.57
2019-02-28T08:34:38.474Z,48.33
2019-02-28T08:37:08.808Z,45.60
2019-02-28T08:39:41.226Z,46.87
2019-02-28T08:42:11.447Z,49.30
2019-02-28T08:44:42.890Z,50.33
2019-02-28T08:47:13.425Z,70.60
2019-02-28T08:49:45.514Z,45.77
2019-02-28T08:52:15.542Z,49.83
2019-02-28T08:54:45.785Z,57.83
2019-02-28T08:57:16.081Z,47.13
2019-02-28T08:59:46.378Z,53.57
2019-02-28T09:02:18.323Z,50.33
2019-02-28T09:04:50.863Z,45.50
2019-02-28T09:07:20.963Z,52.83
2019-02-28T09:09:52.538Z,52.87
2019-02-28T09:12:22.818Z,51.90
2019-02-28T09:14:55.363Z,50.93
2019-02-28T09:17:25.320Z,44.87
2019-02-28T09:19:55.901Z,49.40
2019-02-28T09:22:27.348Z,51.93
2019-02-28T09:24:58.305Z,50.37
2019-02-28T09:27:28.571Z,47.97
2019-02-28T09:29:58.733Z,57.90
2019-02-28T09:32:29.090Z,56.47
2019-02-28T09:35:02.557Z,48.47
2019-02-28T09:37:31.243Z,53.43
2019-02-28T09:40:01.541Z,55.37
2019-02-28T09:42:32.114Z,53.37
2019-02-28T09:45:06.757Z,49.87
2019-02-28T09:47:35.375Z,58.10
2019-02-28T09:50:06.460Z,47.23
2019-02-28T09:52:41.250Z,51.70
2019-02-28T09:55:09.161Z,56.37
2019-02-28T09:57:39.459Z,56.40
2019-02-28T10:00:12.748Z,53.20
2019-02-28T10:02:44.050Z,54.63
2019-02-28T10:05:15.231Z,56.90
2019-02-28T10:07:46.027Z,58.10
2019-02-28T10:10:21.027Z,57.47
2019-02-28T10:12:50.263Z,55.67
2019-02-28T10:15:21.159Z,57.03
2019-02-28T10:17:51.960Z,57.60
2019-02-28T10:20:27.110Z,50.33
2019-02-28T10:22:57.014Z,49.83
2019-02-28T10:25:28.458Z,56.20
2019-02-28T10:28:02.546Z,52.30
2019-02-28T10:30:32.551Z,57.90
2019-02-28T10:33:04.320Z,54.63
2019-02-28T10:35:36.947Z,49.67
2019-02-28T10:38:06.378Z,61.60
2019-02-28T10:40:36.628Z,55.63
2019-02-28T10:43:08.219Z,65.20
2019-02-28T10:45:41.978Z,59.07
2019-02-28T10:48:10.659Z,60.23
2019-02-28T10:50:40.902Z,61.37
2019-02-28T10:53:11.624Z,59.97
2019-02-28T10:55:42.306Z,56.77
2019-02-28T10:58:15.414Z,57.03
2019-02-28T11:00:45.002Z,51.57
2019-02-28T11:03:15.824Z,62.67
2019-02-28T11:05:46.991Z,55.60
2019-02-28T11:08:19.292Z,57.77
2019-02-28T11:10:49.727Z,54.47
2019-02-28T11:13:20.110Z,58.87
2019-02-28T11:15:50.592Z,56.93
2019-02-28T11:18:20.870Z,57.47
2019-02-28T11:20:51.322Z,54.63
2019-02-28T11:23:22.968Z,51.30
2019-02-28T11:25:54.175Z,55.27
2019-02-28T11:28:27.920Z,55.47
2019-02-28T11:30:57.138Z,54.63
2019-02-28T11:33:27.675Z,59.33
2019-02-28T11:35:59.322Z,53.50
2019-02-28T11:38:30.746Z,60.33
2019-02-28T11:41:00.966Z,56.73
2019-02-28T11:43:37.213Z,47.53
2019-02-28T11:46:04.297Z,59.47
2019-02-28T11:48:34.610Z,57.63
2019-02-28T11:51:04.898Z,59.10
2019-02-28T11:53:39.282Z,62.67
2019-02-28T11:56:07.118Z,63.63
2019-02-28T11:58:37.400Z,68.87
2019-02-28T12:01:10.473Z,52.73
2019-02-28T12:03:39.575Z,61.00
2019-02-28T12:06:09.807Z,65.50
2019-02-28T12:08:41.567Z,66.20
2019-02-28T12:11:11.924Z,64.20
2019-02-28T12:13:42.191Z,63.70
2019-02-28T12:16:12.470Z,64.27
2019-02-28T12:18:42.631Z,67.07
2019-02-28T12:21:12.900Z,63.83
2019-02-28T12:23:43.189Z,66.10
2019-02-28T12:26:14.395Z,68.77
2019-02-28T12:28:45.565Z,60.83
2019-02-28T12:31:15.808Z,63.17
2019-02-28T12:33:46.491Z,64.63
2019-02-28T12:36:16.806Z,58.83
2019-02-28T12:38:47.244Z,48.20
2019-02-28T12:41:17.527Z,54.83
2019-02-28T12:43:47.865Z,47.20
2019-02-28T12:46:18.205Z,51.43
2019-02-28T12:48:48.941Z,49.47
2019-02-28T12:51:19.679Z,59.00
2019-02-28T12:53:50.035Z,47.83
2019-02-28T12:56:20.655Z,54.13
2019-02-28T12:58:50.980Z,62.40
2019-02-28T13:01:21.673Z,52.10
2019-02-28T13:03:57.733Z,47.60
2019-02-28T13:06:24.821Z,55.60
2019-02-28T13:08:55.489Z,55.20
2019-02-28T13:11:25.795Z,51.83
2019-02-28T13:13:56.108Z,59.47
2019-02-28T13:16:26.739Z,56.80
2019-02-28T13:18:57.267Z,61.67
2019-02-28T13:21:27.783Z,60.53
2019-02-28T13:23:57.955Z,54.27
2019-02-28T13:26:30.562Z,51.17
2019-02-28T13:29:00.704Z,60.97
2019-02-28T13:31:31.002Z,55.30
2019-02-28T13:34:01.267Z,54.20
2019-02-28T13:36:31.908Z,60.93
2019-02-28T13:39:02.107Z,61.93
2019-02-28T13:41:36.653Z,64.53
2019-02-28T13:44:06.905Z,58.87
2019-02-28T13:46:37.388Z,64.83
2019-02-28T13:49:08.469Z,60.87
2019-02-28T13:51:42.084Z,58.83
2019-02-28T13:54:12.158Z,61.77
2019-02-28T13:56:42.415Z,64.23
2019-02-28T13:59:13.094Z,68.67
2019-02-28T14:01:43.483Z,62.77
2019-02-28T14:04:14.146Z,70.67
2019-02-28T14:06:44.376Z,61.60
2019-02-28T14:09:14.699Z,68.70
2019-02-28T14:11:45.881Z,75.10
2019-02-28T14:14:16.876Z,70.97
2019-02-28T14:16:47.167Z,63.40
2019-02-28T14:19:20.450Z,66.67
2019-02-28T14:21:49.782Z,73.40
2019-02-28T14:24:20.248Z,74.00
2019-02-28T14:26:50.591Z,73.33
2019-02-28T14:29:22.188Z,79.80
2019-02-28T14:31:52.555Z,76.20
2019-02-28T14:34:26.199Z,81.03
2019-02-28T14:36:54.738Z,73.70
2019-02-28T14:39:25.103Z,63.60
2019-02-28T14:41:55.304Z,76.60
2019-02-28T14:44:28.031Z,76.30
2019-02-28T14:46:57.464Z,78.53
2019-02-28T14:49:27.974Z,77.10
2019-02-28T14:52:00.402Z,75.67
2019-02-28T14:54:30.664Z,74.77
2019-02-28T14:57:00.928Z,79.47
2019-02-28T14:59:32.018Z,81.33
2019-02-28T15:02:02.378Z,76.07
2019-02-28T15:04:32.716Z,72.13
2019-02-28T15:07:04.142Z,76.17
2019-02-28T15:09:34.693Z,80.03
2019-02-28T15:12:05.104Z,81.67
2019-02-28T15:14:35.430Z,74.03
2019-02-28T15:17:07.555Z,74.47
2019-02-28T15:19:37.874Z,68.33
2019-02-28T15:22:08.137Z,66.27
2019-02-28T15:24:40.600Z,71.43
2019-02-28T15:27:10.268Z,71.03
2019-02-28T15:29:41.355Z,79.10
2019-02-28T15:32:14.238Z,75.43
2019-02-28T15:34:44.824Z,72.03
2019-02-28T15:37:15.074Z,80.57
2019-02-28T15:39:45.356Z,81.03
2019-02-28T15:42:15.682Z,74.83
2019-02-28T15:44:46.074Z,74.40
2019-02-28T15:47:19.437Z,72.37
2019-02-28T15:49:48.200Z,76.07
2019-02-28T15:52:18.528Z,75.63
2019-02-28T15:54:48.796Z,79.70
2019-02-28T15:57:19.104Z,77.87
2019-02-28T15:59:49.750Z,80.50
2019-02-28T16:02:20.982Z,72.27
2019-02-28T16:04:51.298Z,75.37
2019-02-28T16:07:22.678Z,59.97
2019-02-28T16:09:54.098Z,73.53
2019-02-28T16:12:25.280Z,64.57
2019-02-28T16:14:56.659Z,71.27
2019-02-28T16:17:27.135Z,70.20
2019-02-28T16:19:57.389Z,75.50
2019-02-28T16:22:27.702Z,70.17
2019-02-28T16:24:58.166Z,74.40
2019-02-28T16:27:32.280Z,70.93
2019-02-28T16:30:04.034Z,67.83
2019-02-28T16:32:35.027Z,68.30
2019-02-28T16:35:06.018Z,65.47
2019-02-28T16:37:36.754Z,68.67
2019-02-28T16:40:09.300Z,66.97
2019-02-28T16:42:39.914Z,68.57
2019-02-28T16:45:15.275Z,68.23
2019-02-28T16:47:45.866Z,64.87
2019-02-28T16:50:18.770Z,71.80
2019-02-28T16:52:48.512Z,72.97
2019-02-28T16:55:18.803Z,69.87
2019-02-28T16:57:49.829Z,77.47
2019-02-28T17:00:20.086Z,73.17
2019-02-28T17:02:50.581Z,69.60
2019-02-28T17:05:26.476Z,74.60
2019-02-28T17:07:53.537Z,67.30
2019-02-28T17:10:30.172Z,71.80
2019-02-28T17:13:23.122Z,77.17
2019-02-28T17:16:24.687Z,69.00
2019-02-28T17:18:56.823Z,71.80
2019-02-28T17:21:27.103Z,69.23
2019-02-28T17:23:58.804Z,75.33
2019-02-28T17:26:57.627Z,74.77
2019-02-28T17:29:36.084Z,69.77
2019-02-28T17:32:06.393Z,69.13
2019-02-28T17:34:36.711Z,67.90
2019-02-28T17:37:06.974Z,71.63
2019-02-28T17:39:37.311Z,64.67
2019-02-28T17:42:09.120Z,66.30
2019-02-28T17:45:23.627Z,64.43
2019-02-28T17:48:29.085Z,71.50
2019-02-28T17:51:14.921Z,69.10
2019-02-28T17:54:24.044Z,77.07
2019-02-28T17:57:19.197Z,71.27
2019-02-28T18:00:41.361Z,70.63
2019-02-28T18:03:52.730Z,76.90
2019-02-28T18:07:13.656Z,71.77
2019-02-28T18:10:24.230Z,76.00
2019-02-28T18:13:06.317Z,76.60
2019-02-28T18:16:08.855Z,75.93
2019-02-28T18:19:21.516Z,83.97
2019-02-28T18:22:32.686Z,78.23
2019-02-28T18:25:57.048Z,74.13
2019-02-28T18:28:58.026Z,73.40
2019-02-28T18:31:29.732Z,74.77
2019-02-28T18:34:02.987Z,76.20
2019-02-28T18:36:33.436Z,81.97
2019-02-28T18:39:08.169Z,76.87
2019-02-28T18:41:38.971Z,83.70
2019-02-28T18:44:11.510Z,78.83
2019-02-28T18:46:41.780Z,74.87
2019-02-28T18:49:12.226Z,80.20
2019-02-28T18:51:42.522Z,81.90
2019-02-28T18:54:12.924Z,72.70
2019-02-28T18:56:43.286Z,85.37
2019-02-28T18:59:13.717Z,87.37
2019-02-28T19:01:44.183Z,78.00
2019-02-28T19:04:14.598Z,94.90
2019-02-28T19:06:45.120Z,79.37
2019-02-28T19:09:24.168Z,81.70
2019-02-28T19:11:54.739Z,77.77
2019-02-28T19:14:24.990Z,81.17
2019-02-28T19:16:55.327Z,61.40
2019-02-28T19:19:25.635Z,73.83
2019-02-28T19:21:56.342Z,66.77
2019-02-28T19:24:26.912Z,81.37
2019-02-28T19:26:57.224Z,68.97
2019-02-28T19:29:28.038Z,70.60
2019-02-28T19:31:58.464Z,59.70
2019-02-28T19:34:28.988Z,77.00
2019-02-28T19:36:59.286Z,69.63
2019-02-28T19:39:29.555Z,64.50
2019-02-28T19:42:00.295Z,74.77
2019-02-28T19:44:30.643Z,76.50
2019-02-28T19:47:01.013Z,65.03
2019-02-28T19:49:31.525Z,45.87
2019-02-28T19:52:02.020Z,31.43
2019-02-28T19:54:32.748Z,24.63
2019-02-28T19:57:03.079Z,17.60
2019-02-28T19:59:33.435Z,16.70
2019-02-28T20:02:03.934Z,14.33
2019-02-28T20:04:34.222Z,7.47
2019-02-28T20:07:04.728Z,8.17
2019-02-28T20:09:36.381Z,7.77
2019-02-28T20:12:06.720Z,6.13
2019-02-28T20:14:37.460Z,4.83
2019-02-28T20:17:07.760Z,6.23
2019-02-28T20:19:38.140Z,7.40
2019-02-28T20:22:08.642Z,9.13
2019-02-28T20:24:39.418Z,7.17
2019-02-28T20:27:09.828Z,11.87
2019-02-28T20:29:40.193Z,10.13
2019-02-28T20:32:10.450Z,14.10
2019-02-28T20:34:40.786Z,9.63
2019-02-28T20:37:12.527Z,11.33
2019-02-28T20:39:42.817Z,8.10
2019-02-28T20:42:13.141Z,7.73
2019-02-28T20:44:43.431Z,10.60
2019-02-28T20:47:13.783Z,4.57
2019-02-28T20:49:44.053Z,5.47
2019-02-28T20:52:14.506Z,8.87
2019-02-28T20:54:45.648Z,7.57
2019-02-28T20:57:16.460Z,5.37
2019-02-28T20:59:46.658Z,6.63
2019-02-28T21:02:18.769Z,7.13
2019-02-28T21:04:49.010Z,4.47
2019-02-28T21:07:19.494Z,7.90
2019-02-28T21:09:50.143Z,6.40
2019-02-28T21:12:20.581Z,5.40
2019-02-28T21:14:50.841Z,6.63
2019-02-28T21:17:29.196Z,4.33
2019-02-28T21:19:53.143Z,7.10
2019-02-28T21:22:23.900Z,6.53
2019-02-28T21:24:54.229Z,6.60
2019-02-28T21:27:25.152Z,6.10
2019-02-28T21:29:55.850Z,6.57
2019-02-28T21:32:26.665Z,7.07
2019-02-28T21:34:57.271Z,8.27
2019-02-28T21:37:27.433Z,8.53
2019-02-28T21:40:00.746Z,7.00
2019-02-28T21:42:31.186Z,5.50
2019-02-28T21:45:01.506Z,7.30
2019-02-28T21:47:32.455Z,7.57
2019-02-28T21:50:03.389Z,11.23
2019-02-28T21:52:33.959Z,11.43
2019-02-28T21:55:04.835Z,9.77
2019-02-28T21:57:36.718Z,15.00
2019-02-28T22:00:11.207Z,13.83
2019-02-28T22:02:43.147Z,14.13
2019-02-28T22:05:14.631Z,12.10
2019-02-28T22:07:44.892Z,12.37
2019-02-28T22:10:16.517Z,15.67
2019-02-28T22:12:47.939Z,17.53
2019-02-28T22:15:18.686Z,16.23
2019-02-28T22:17:49.026Z,15.00
2019-02-28T22:20:19.366Z,20.57
2019-02-28T22:22:49.740Z,21.63
2019-02-28T22:25:19.991Z,31.90
2019-02-28T22:27:50.552Z,34.37
2019-02-28T22:30:46.384Z,43.47
2019-02-28T22:33:24.677Z,54.37
2019-02-28T22:35:56.912Z,49.20
2019-02-28T22:38:27.464Z,65.10
2019-02-28T22:40:57.759Z,70.17
2019-02-28T22:43:28.315Z,68.93
2019-02-28T22:45:58.601Z,89.47
2019-02-28T22:48:29.184Z,78.07
2019-02-28T22:50:59.459Z,75.93
2019-02-28T22:53:29.713Z,91.63
2019-02-28T22:56:00.198Z,95.90
2019-02-28T22:58:30.368Z,82.27
2019-02-28T23:01:10.455Z,83.57
2019-02-28T23:03:41.209Z,84.13
2019-02-28T23:06:12.273Z,84.40
2019-02-28T23:08:42.552Z,80.67
2019-02-28T23:11:13.480Z,81.77
2019-02-28T23:13:43.710Z,84.83
2019-02-28T23:16:14.652Z,84.30
2019-02-28T23:18:44.898Z,80.83
2019-02-28T23:21:15.363Z,87.83
2019-02-28T23:23:45.666Z,83.20
2019-02-28T23:26:16.294Z,83.87
2019-02-28T23:28:56.489Z,87.87
2019-02-28T23:32:16.989Z,85.07
2019-02-28T23:34:54.878Z,96.30
2019-02-28T23:37:25.162Z,80.77
2019-02-28T23:39:55.406Z,80.63
2019-02-28T23:42:25.866Z,87.07
2019-02-28T23:44:56.174Z,83.17
2019-02-28T23:47:27.535Z,87.27
2019-02-28T23:49:58.053Z,96.60
2019-02-28T23:52:28.597Z,98.77
2019-02-28T23:55:00.032Z,94.63
2019-02-28T23:57:30.590Z,101.30
